Time;durP1;ratioP1;P1;durP2;ratioP2;P2;SDS_P1;SDS_P2;PMS_P1;PMS_P2;Temp;Humidity;BMP_temperature;BMP_pressure;BME280_temperature;BME280_humidity;BME280_pressure;Samples;Min_cycle;Max_cycle;Signal;HPM_P1;HPM_P2
2023/09/09 00:00:47;;;;;;;1.93;1.83;;;;;;;;;;5071026;28;20254;-83
2023/09/09 00:03:16;;;;;;;3.23;3.03;;;;;;;;;;5073582;28;20212;-84
2023/09/09 00:05:44;;;;;;;6.70;6.07;;;;;;;;;;5075340;28;20199;-84
2023/09/09 00:08:15;;;;;;;3.77;2.77;;;;;;;;;;5075513;28;20223;-84
2023/09/09 00:10:44;;;;;;;3.73;3.50;;;;;;;;;;5075216;28;20216;-84
2023/09/09 00:13:12;;;;;;;0.90;0.90;;;;;;;;;;5074570;28;20224;-84
2023/09/09 00:15:41;;;;;;;0.70;0.70;;;;;;;;;;5074646;28;20324;-84
2023/09/09 00:18:09;;;;;;;5.43;5.03;;;;;;;;;;5075013;28;20199;-83
2023/09/09 00:20:40;;;;;;;5.23;4.93;;;;;;;;;;5074755;28;20210;-84
2023/09/09 00:23:09;;;;;;;8.40;7.53;;;;;;;;;;5074956;28;20245;-84
2023/09/09 00:25:39;;;;;;;5.23;4.83;;;;;;;;;;5075106;28;20201;-84
2023/09/09 00:28:08;;;;;;;3.80;2.43;;;;;;;;;;5074833;28;20204;-84
2023/09/09 00:30:37;;;;;;;1.23;1.23;;;;;;;;;;5074450;28;20199;-84
2023/09/09 00:33:07;;;;;;;7.63;5.87;;;;;;;;;;5074484;28;20203;-84
2023/09/09 00:35:38;;;;;;;5.03;4.57;;;;;;;;;;5074682;28;20219;-83
2023/09/09 00:38:07;;;;;;;5.70;2.47;;;;;;;;;;5074906;28;20232;-83
2023/09/09 00:40:36;;;;;;;1.50;1.17;;;;;;;;;;5074500;28;20250;-83
2023/09/09 00:43:06;;;;;;;20.13;14.93;;;;;;;;;;5075301;28;20238;-83
2023/09/09 00:45:34;;;;;;;3.03;2.87;;;;;;;;;;5074986;28;20200;-83
2023/09/09 00:48:03;;;;;;;22.03;16.90;;;;;;;;;;5074762;28;20208;-83
2023/09/09 00:50:32;;;;;;;20.63;10.30;;;;;;;;;;5074997;28;20200;-83
2023/09/09 00:53:00;;;;;;;19.20;16.40;;;;;;;;;;5074919;28;20210;-83
2023/09/09 00:55:30;;;;;;;11.03;10.07;;;;;;;;;;5074696;28;20221;-84
2023/09/09 00:57:58;;;;;;;13.83;7.27;;;;;;;;;;5073793;28;20205;-83
2023/09/09 01:00:28;;;;;;;4.10;2.40;;;;;;;;;;5074177;28;20201;-84
2023/09/09 01:02:57;;;;;;;3.37;3.07;;;;;;;;;;5074385;28;20199;-84
2023/09/09 01:05:26;;;;;;;11.90;4.10;;;;;;;;;;5074340;28;20203;-83
2023/09/09 01:07:54;;;;;;;1.50;1.50;;;;;;;;;;5073774;28;20209;-84
2023/09/09 01:10:23;;;;;;;1.93;1.40;;;;;;;;;;5073999;28;20207;-83
2023/09/09 01:12:52;;;;;;;0.30;0.30;;;;;;;;;;5074458;28;20287;-83
2023/09/09 01:15:20;;;;;;;0.67;0.67;;;;;;;;;;5072755;28;20245;-83
2023/09/09 01:17:52;;;;;;;4.47;4.03;;;;;;;;;;5073994;28;20205;-83
2023/09/09 01:20:21;;;;;;;3.17;3.07;;;;;;;;;;5074401;28;20210;-83
2023/09/09 01:22:52;;;;;;;0.50;0.50;;;;;;;;;;5074530;28;20235;-83
2023/09/09 01:25:20;;;;;;;0.43;0.43;;;;;;;;;;5073921;28;20202;-83
2023/09/09 01:27:49;;;;;;;3.40;3.13;;;;;;;;;;5074495;28;20209;-84
2023/09/09 01:30:17;;;;;;;4.33;4.10;;;;;;;;;;5073747;28;20199;-82
2023/09/09 01:32:49;;;;;;;1.90;1.77;;;;;;;;;;5074364;28;20286;-83
2023/09/09 01:35:17;;;;;;;10.43;8.53;;;;;;;;;;5073458;28;20218;-83
2023/09/09 01:37:46;;;;;;;10.20;7.67;;;;;;;;;;5074299;28;20285;-83
2023/09/09 01:40:16;;;;;;;3.47;3.27;;;;;;;;;;5073808;28;20227;-83
2023/09/09 01:42:47;;;;;;;1.47;1.47;;;;;;;;;;5073708;28;20194;-83
2023/09/09 01:45:16;;;;;;;4.60;4.13;;;;;;;;;;5073559;28;20306;-82
2023/09/09 01:47:45;;;;;;;4.50;3.93;;;;;;;;;;5073860;28;20207;-83
2023/09/09 01:50:13;;;;;;;11.33;7.97;;;;;;;;;;5073682;28;20237;-83
2023/09/09 01:52:42;;;;;;;3.43;3.07;;;;;;;;;;5073623;28;20201;-83
2023/09/09 01:55:10;;;;;;;14.17;7.43;;;;;;;;;;5073458;28;20201;-83
2023/09/09 01:57:40;;;;;;;20.70;15.77;;;;;;;;;;5073812;28;20203;-83
2023/09/09 02:00:09;;;;;;;11.37;6.67;;;;;;;;;;5073431;28;20199;-83
2023/09/09 02:02:38;;;;;;;2.63;1.80;;;;;;;;;;5072863;28;20216;-83
2023/09/09 02:05:07;;;;;;;11.23;9.73;;;;;;;;;;5073560;28;20207;-83
2023/09/09 02:07:35;;;;;;;11.70;8.87;;;;;;;;;;5073477;28;20203;-83
2023/09/09 02:10:04;;;;;;;7.40;6.17;;;;;;;;;;5073137;28;20271;-83
2023/09/09 02:12:32;;;;;;;12.10;9.20;;;;;;;;;;5072647;28;20201;-83
2023/09/09 02:15:02;;;;;;;1.93;1.37;;;;;;;;;;5073433;28;20249;-82
2023/09/09 02:17:31;;;;;;;1.17;1.17;;;;;;;;;;5072606;28;20298;-83
2023/09/09 02:19:59;;;;;;;4.30;2.20;;;;;;;;;;5072561;28;20243;-83
2023/09/09 02:22:27;;;;;;;6.60;2.73;;;;;;;;;;5073032;28;20246;-83
2023/09/09 02:24:56;;;;;;;4.10;3.90;;;;;;;;;;5072783;28;20213;-83
2023/09/09 02:27:25;;;;;;;6.13;5.60;;;;;;;;;;5072463;28;20200;-84
2023/09/09 02:29:53;;;;;;;8.30;7.67;;;;;;;;;;5072121;28;20251;-84
2023/09/09 02:32:23;;;;;;;1.17;1.13;;;;;;;;;;5072584;28;20200;-83
2023/09/09 02:34:52;;;;;;;1.80;1.80;;;;;;;;;;5072437;28;20194;-83
2023/09/09 02:37:21;;;;;;;2.10;2.00;;;;;;;;;;5071973;28;20232;-84
2023/09/09 02:39:51;;;;;;;0.40;0.40;;;;;;;;;;5072108;28;20194;-84
2023/09/09 02:42:20;;;;;;;4.60;4.20;;;;;;;;;;5072855;28;20201;-83
2023/09/09 02:44:50;;;;;;;1.17;1.17;;;;;;;;;;5072979;28;20229;-83
2023/09/09 02:47:18;;;;;;;0.33;0.33;;;;;;;;;;5072166;28;20297;-83
2023/09/09 02:49:52;;;;;;;1.43;1.43;;;;;;;;;;5072265;28;20307;-83
2023/09/09 02:52:22;;;;;;;0.40;0.40;;;;;;;;;;5072003;28;20202;-84
2023/09/09 02:54:50;;;;;;;0.30;0.30;;;;;;;;;;5072084;28;20202;-84
2023/09/09 02:57:19;;;;;;;3.83;3.67;;;;;;;;;;5071614;28;20239;-84
2023/09/09 02:59:47;;;;;;;0.67;0.67;;;;;;;;;;5072083;28;20210;-84
2023/09/09 03:02:16;;;;;;;2.43;2.13;;;;;;;;;;5071809;28;20191;-84
2023/09/09 03:04:44;;;;;;;1.90;1.20;;;;;;;;;;5071962;28;20205;-84
2023/09/09 03:07:14;;;;;;;0.93;0.93;;;;;;;;;;5071985;28;20239;-84
2023/09/09 03:09:45;;;;;;;4.20;4.00;;;;;;;;;;5071887;28;20193;-84
2023/09/09 03:12:16;;;;;;;6.10;4.63;;;;;;;;;;5071713;28;20195;-84
2023/09/09 03:14:47;;;;;;;4.13;3.93;;;;;;;;;;5071298;28;20200;-84
2023/09/09 03:17:15;;;;;;;0.50;0.50;;;;;;;;;;5071623;28;20305;-84
2023/09/09 03:19:47;;;;;;;2.00;1.90;;;;;;;;;;5071975;28;20203;-84
2023/09/09 03:22:17;;;;;;;0.30;0.30;;;;;;;;;;5071422;28;20206;-84
2023/09/09 03:24:45;;;;;;;2.40;2.30;;;;;;;;;;5071025;28;20201;-84
2023/09/09 03:27:14;;;;;;;0.53;0.53;;;;;;;;;;5072028;28;20221;-84
2023/09/09 03:29:42;;;;;;;0.53;0.53;;;;;;;;;;5071813;28;20250;-84
2023/09/09 03:32:11;;;;;;;0.30;0.30;;;;;;;;;;5071174;28;20206;-84
2023/09/09 03:34:40;;;;;;;1.03;1.03;;;;;;;;;;5071492;28;20206;-84
2023/09/09 03:37:09;;;;;;;0.50;0.50;;;;;;;;;;5070938;28;20234;-84
2023/09/09 03:39:39;;;;;;;0.30;0.30;;;;;;;;;;5071503;28;20253;-84
2023/09/09 03:42:08;;;;;;;0.97;0.97;;;;;;;;;;5071287;28;20203;-84
2023/09/09 03:44:36;;;;;;;0.30;0.30;;;;;;;;;;5071894;28;20202;-84
2023/09/09 03:47:05;;;;;;;0.70;0.70;;;;;;;;;;5071589;28;20195;-84
2023/09/09 03:49:33;;;;;;;0.50;0.50;;;;;;;;;;5070991;28;20202;-84
2023/09/09 03:52:02;;;;;;;3.50;3.23;;;;;;;;;;5071329;28;20200;-84
2023/09/09 03:54:31;;;;;;;0.30;0.30;;;;;;;;;;5071501;28;20202;-84
2023/09/09 03:57:01;;;;;;;0.30;0.30;;;;;;;;;;5071343;28;20217;-84
2023/09/09 03:59:31;;;;;;;0.57;0.57;;;;;;;;;;5070908;28;20253;-84
2023/09/09 04:01:59;;;;;;;1.67;1.67;;;;;;;;;;5071526;28;20205;-84
2023/09/09 04:04:28;;;;;;;0.30;0.30;;;;;;;;;;5071191;28;20262;-84
2023/09/09 04:06:56;;;;;;;3.27;2.73;;;;;;;;;;5071264;28;20201;-83
2023/09/09 04:09:26;;;;;;;0.50;0.50;;;;;;;;;;5070924;28;20205;-83
2023/09/09 04:11:55;;;;;;;1.00;1.00;;;;;;;;;;5071924;28;20196;-83
2023/09/09 04:14:25;;;;;;;0.30;0.30;;;;;;;;;;5071496;28;20205;-83
2023/09/09 04:16:55;;;;;;;1.90;1.90;;;;;;;;;;5070829;28;20290;-83
2023/09/09 04:19:25;;;;;;;0.30;0.30;;;;;;;;;;5071426;28;20211;-83
2023/09/09 04:21:54;;;;;;;0.30;0.30;;;;;;;;;;5071668;28;20258;-83
2023/09/09 04:24:21;;;;;;;0.40;0.40;;;;;;;;;;5071660;28;20213;-83
2023/09/09 04:26:50;;;;;;;0.30;0.30;;;;;;;;;;5071686;28;20270;-83
2023/09/09 04:29:18;;;;;;;5.93;4.23;;;;;;;;;;5071438;28;20209;-83
2023/09/09 04:31:48;;;;;;;0.30;0.30;;;;;;;;;;5071361;28;20194;-83
2023/09/09 04:34:17;;;;;;;0.30;0.30;;;;;;;;;;5071398;28;20257;-83
2023/09/09 04:36:48;;;;;;;0.50;0.50;;;;;;;;;;5070807;28;20247;-83
2023/09/09 04:39:16;;;;;;;3.40;1.50;;;;;;;;;;5071358;28;20206;-83
2023/09/09 04:41:45;;;;;;;3.97;3.60;;;;;;;;;;5071450;28;20212;-83
2023/09/09 04:44:13;;;;;;;1.90;1.80;;;;;;;;;;5071078;28;20208;-83
2023/09/09 04:46:41;;;;;;;1.13;1.13;;;;;;;;;;5070884;28;20196;-82
2023/09/09 04:49:11;;;;;;;0.37;0.37;;;;;;;;;;5071883;28;20204;-83
2023/09/09 04:51:40;;;;;;;0.73;0.73;;;;;;;;;;5074947;28;20225;-83
2023/09/09 04:54:08;;;;;;;0.87;0.87;;;;;;;;;;5074830;28;20211;-83
2023/09/09 04:56:37;;;;;;;0.70;0.70;;;;;;;;;;5074891;28;20213;-83
2023/09/09 04:59:05;;;;;;;0.40;0.40;;;;;;;;;;5074217;28;20217;-83
2023/09/09 05:01:34;;;;;;;1.47;1.47;;;;;;;;;;5074213;28;20200;-83
2023/09/09 05:04:02;;;;;;;1.73;1.73;;;;;;;;;;5074030;28;20213;-83
2023/09/09 05:06:32;;;;;;;0.60;0.60;;;;;;;;;;5074349;28;20205;-83
2023/09/09 05:09:03;;;;;;;2.13;1.73;;;;;;;;;;5074449;28;20220;-83
2023/09/09 05:11:32;;;;;;;1.83;1.73;;;;;;;;;;5073823;28;20205;-84
2023/09/09 05:14:00;;;;;;;3.37;3.17;;;;;;;;;;5073803;28;20200;-84
2023/09/09 05:16:29;;;;;;;2.57;2.40;;;;;;;;;;5074179;28;20233;-83
2023/09/09 05:18:58;;;;;;;2.20;1.50;;;;;;;;;;5074267;28;20233;-83
2023/09/09 05:21:26;;;;;;;1.83;1.73;;;;;;;;;;5073691;28;20197;-83
2023/09/09 05:23:56;;;;;;;0.60;0.60;;;;;;;;;;5074309;28;20207;-83
2023/09/09 05:26:24;;;;;;;2.40;2.30;;;;;;;;;;5074411;28;20207;-83
2023/09/09 05:28:53;;;;;;;5.20;3.00;;;;;;;;;;5074420;28;20262;-83
2023/09/09 05:31:21;;;;;;;0.87;0.87;;;;;;;;;;5074192;28;20212;-83
2023/09/09 05:33:50;;;;;;;2.63;2.53;;;;;;;;;;5074670;28;20208;-83
2023/09/09 05:36:18;;;;;;;1.00;1.00;;;;;;;;;;5073923;28;20318;-83
2023/09/09 05:38:47;;;;;;;4.90;4.53;;;;;;;;;;5073433;28;20249;-83
2023/09/09 05:41:16;;;;;;;1.87;1.87;;;;;;;;;;5073894;28;20203;-83
2023/09/09 05:43:45;;;;;;;1.80;1.73;;;;;;;;;;5074200;28;20215;-83
2023/09/09 05:46:13;;;;;;;0.67;0.67;;;;;;;;;;5073928;28;20199;-83
2023/09/09 05:48:42;;;;;;;4.20;3.90;;;;;;;;;;5073833;28;20237;-82
2023/09/09 05:51:11;;;;;;;3.03;2.73;;;;;;;;;;5073403;28;20199;-82
2023/09/09 05:53:39;;;;;;;15.63;4.60;;;;;;;;;;5073883;28;20205;-83
2023/09/09 05:56:08;;;;;;;5.77;5.23;;;;;;;;;;5073762;28;20200;-83
2023/09/09 05:58:39;;;;;;;5.60;5.20;;;;;;;;;;5073583;28;20254;-82
2023/09/09 06:01:08;;;;;;;2.63;2.43;;;;;;;;;;5073023;28;20197;-83
2023/09/09 06:03:36;;;;;;;4.17;3.93;;;;;;;;;;5073611;28;20205;-83
2023/09/09 06:06:06;;;;;;;6.80;4.10;;;;;;;;;;5072807;28;20229;-84
2023/09/09 06:08:35;;;;;;;6.07;5.57;;;;;;;;;;5073468;28;20222;-84
2023/09/09 06:11:03;;;;;;;3.97;3.57;;;;;;;;;;5073212;28;20201;-84
2023/09/09 06:13:31;;;;;;;1.67;1.27;;;;;;;;;;5072822;28;20280;-84
2023/09/09 06:16:01;;;;;;;3.23;2.93;;;;;;;;;;5072580;28;20234;-84
2023/09/09 06:18:30;;;;;;;3.43;3.13;;;;;;;;;;5072932;28;20460;-84
2023/09/09 06:20:58;;;;;;;5.87;5.40;;;;;;;;;;5072723;28;20209;-84
2023/09/09 06:23:27;;;;;;;1.70;1.70;;;;;;;;;;5072884;28;20201;-84
2023/09/09 06:25:55;;;;;;;4.67;4.27;;;;;;;;;;5072769;28;20260;-84
2023/09/09 06:28:24;;;;;;;0.43;0.43;;;;;;;;;;5072713;28;20206;-84
2023/09/09 06:30:52;;;;;;;2.43;2.27;;;;;;;;;;5072679;28;20227;-84
2023/09/09 06:33:22;;;;;;;0.50;0.50;;;;;;;;;;5072283;28;20206;-84
2023/09/09 06:35:52;;;;;;;0.83;0.83;;;;;;;;;;5072847;28;20209;-84
2023/09/09 06:38:21;;;;;;;1.67;1.57;;;;;;;;;;5072942;28;20218;-83
2023/09/09 06:40:49;;;;;;;2.40;2.20;;;;;;;;;;5072144;28;20193;-84
2023/09/09 06:43:19;;;;;;;6.37;3.33;;;;;;;;;;5072388;28;20205;-84
2023/09/09 06:45:47;;;;;;;8.73;6.13;;;;;;;;;;5072406;28;20200;-84
2023/09/09 06:48:17;;;;;;;6.67;3.37;;;;;;;;;;5072273;28;20292;-84
2023/09/09 06:50:48;;;;;;;4.10;3.80;;;;;;;;;;5072250;28;20205;-83
2023/09/09 06:53:17;;;;;;;0.50;0.50;;;;;;;;;;5072400;28;20204;-83
2023/09/09 06:55:46;;;;;;;6.00;4.53;;;;;;;;;;5072263;28;20200;-83
2023/09/09 06:58:14;;;;;;;5.33;4.83;;;;;;;;;;5072457;28;20355;-83
2023/09/09 07:00:50;;;;;;;0.93;0.93;;;;;;;;;;5071859;28;20213;-82
2023/09/09 07:03:19;;;;;;;3.30;3.07;;;;;;;;;;5072502;28;20207;-83
2023/09/09 07:05:49;;;;;;;3.40;3.20;;;;;;;;;;5072559;28;20203;-83
2023/09/09 07:08:18;;;;;;;8.83;7.17;;;;;;;;;;5072206;28;20209;-83
2023/09/09 07:10:50;;;;;;;5.17;4.67;;;;;;;;;;5071697;28;20189;-83
2023/09/09 07:13:19;;;;;;;7.30;6.63;;;;;;;;;;5071176;28;20204;-84
2023/09/09 07:15:47;;;;;;;7.17;5.27;;;;;;;;;;5072007;28;20210;-84
2023/09/09 07:18:15;;;;;;;1.17;1.17;;;;;;;;;;5071079;28;20232;-84
2023/09/09 07:20:46;;;;;;;11.70;10.03;;;;;;;;;;5071609;28;20206;-84
2023/09/09 07:23:16;;;;;;;7.67;6.90;;;;;;;;;;5072434;28;20198;-83
2023/09/09 07:25:47;;;;;;;7.33;5.43;;;;;;;;;;5071852;28;20262;-83
2023/09/09 07:28:16;;;;;;;16.70;11.03;;;;;;;;;;5071336;28;20201;-84
2023/09/09 07:30:45;;;;;;;2.40;2.30;;;;;;;;;;5071648;28;20235;-84
2023/09/09 07:33:13;;;;;;;8.10;5.30;;;;;;;;;;5071802;28;20239;-84
2023/09/09 07:35:42;;;;;;;5.73;5.20;;;;;;;;;;5071687;28;20197;-84
2023/09/09 07:38:10;;;;;;;1.73;1.73;;;;;;;;;;5072292;28;20226;-84
2023/09/09 07:40:40;;;;;;;3.67;3.47;;;;;;;;;;5071526;28;20195;-84
2023/09/09 07:43:08;;;;;;;15.27;11.97;;;;;;;;;;5071419;28;20201;-84
2023/09/09 07:45:37;;;;;;;0.30;0.30;;;;;;;;;;5071237;28;20204;-84
2023/09/09 07:48:06;;;;;;;3.20;3.03;;;;;;;;;;5071668;28;20200;-84
2023/09/09 07:50:35;;;;;;;0.73;0.73;;;;;;;;;;5071642;28;20247;-84
2023/09/09 07:53:03;;;;;;;2.37;2.27;;;;;;;;;;5070858;28;20204;-84
2023/09/09 07:55:32;;;;;;;0.40;0.40;;;;;;;;;;5071293;28;20205;-85
2023/09/09 07:58:01;;;;;;;1.33;1.23;;;;;;;;;;5071686;28;20194;-83
2023/09/09 08:00:30;;;;;;;1.27;1.17;;;;;;;;;;5071559;28;20223;-83
2023/09/09 08:02:59;;;;;;;0.90;0.90;;;;;;;;;;5071072;28;20221;-84
2023/09/09 08:05:27;;;;;;;2.33;2.13;;;;;;;;;;5071430;28;20278;-83
2023/09/09 08:07:56;;;;;;;1.10;0.93;;;;;;;;;;5071462;28;20221;-83
2023/09/09 08:10:24;;;;;;;1.97;1.20;;;;;;;;;;5071473;28;20205;-84
2023/09/09 08:12:52;;;;;;;1.20;1.20;;;;;;;;;;5070864;28;20206;-83
2023/09/09 08:15:22;;;;;;;4.57;3.40;;;;;;;;;;5071524;28;20204;-83
2023/09/09 08:18:07;;;;;;;4.43;1.00;;;;;;;;;;5070963;28;20237;-83
2023/09/09 08:20:36;;;;;;;3.80;3.50;;;;;;;;;;5071233;28;20318;-83
2023/09/09 08:23:05;;;;;;;2.60;2.40;;;;;;;;;;5071339;28;20203;-84
2023/09/09 08:25:33;;;;;;;1.93;1.67;;;;;;;;;;5074833;28;20210;-84
2023/09/09 08:28:03;;;;;;;0.53;0.53;;;;;;;;;;5074966;28;20203;-84
2023/09/09 08:30:33;;;;;;;0.97;0.97;;;;;;;;;;5074030;28;20196;-84
2023/09/09 08:33:02;;;;;;;0.20;0.20;;;;;;;;;;5074306;28;20202;-84
2023/09/09 08:35:31;;;;;;;2.13;2.00;;;;;;;;;;5074880;28;20272;-84
2023/09/09 08:38:01;;;;;;;0.37;0.37;;;;;;;;;;5074600;28;20275;-84
2023/09/09 08:40:31;;;;;;;0.40;0.40;;;;;;;;;;5074187;28;20311;-83
2023/09/09 08:43:20;;;;;;;0.33;0.33;;;;;;;;;;5074946;28;20204;-84
2023/09/09 08:45:58;;;;;;;0.60;0.60;;;;;;;;;;5074809;28;20213;-83
2023/09/09 08:48:28;;;;;;;0.90;0.90;;;;;;;;;;5074396;28;20201;-83
2023/09/09 08:50:58;;;;;;;2.33;1.97;;;;;;;;;;5074352;28;20193;-83
2023/09/09 08:53:27;;;;;;;0.23;0.23;;;;;;;;;;5074696;28;20190;-83
2023/09/09 08:55:57;;;;;;;0.30;0.30;;;;;;;;;;5074428;28;20205;-83
2023/09/09 08:58:25;;;;;;;3.93;1.93;;;;;;;;;;5074135;28;20201;-85
2023/09/09 09:00:56;;;;;;;0.40;0.40;;;;;;;;;;5074413;28;20220;-85
2023/09/09 09:03:25;;;;;;;0.60;0.60;;;;;;;;;;5074417;28;20207;-85
2023/09/09 09:05:55;;;;;;;1.67;1.57;;;;;;;;;;5073876;28;20449;-85
2023/09/09 09:08:24;;;;;;;0.20;0.20;;;;;;;;;;5074018;28;20212;-85
2023/09/09 09:10:52;;;;;;;0.73;0.73;;;;;;;;;;5074465;28;20225;-85
2023/09/09 09:13:21;;;;;;;1.33;1.23;;;;;;;;;;5074324;28;20205;-85
2023/09/09 09:15:49;;;;;;;0.67;0.67;;;;;;;;;;5073574;28;20201;-84
2023/09/09 09:18:19;;;;;;;1.10;1.03;;;;;;;;;;5074224;28;20336;-84
2023/09/09 09:20:49;;;;;;;0.47;0.47;;;;;;;;;;5073775;28;20216;-84
2023/09/09 09:23:17;;;;;;;1.80;1.70;;;;;;;;;;5074270;28;20200;-85
2023/09/09 09:25:46;;;;;;;1.13;0.77;;;;;;;;;;5073770;28;20277;-83
2023/09/09 09:28:15;;;;;;;0.70;0.70;;;;;;;;;;5073836;28;20204;-83
2023/09/09 09:30:45;;;;;;;1.27;1.17;;;;;;;;;;5074309;28;20205;-83
2023/09/09 09:33:14;;;;;;;0.70;0.70;;;;;;;;;;5073677;28;20248;-83
2023/09/09 09:35:44;;;;;;;1.67;1.57;;;;;;;;;;5072634;28;20231;-84
2023/09/09 09:38:13;;;;;;;3.17;2.87;;;;;;;;;;5073912;28;20220;-84
2023/09/09 09:40:42;;;;;;;2.30;2.10;;;;;;;;;;5073452;28;20231;-84
2023/09/09 09:43:18;;;;;;;7.73;1.13;;;;;;;;;;5073193;28;20205;-84
2023/09/09 09:45:46;;;;;;;0.93;0.93;;;;;;;;;;5073873;28;20204;-83
2023/09/09 09:48:26;;;;;;;0.83;0.80;;;;;;;;;;5073917;28;20196;-84
2023/09/09 09:50:56;;;;;;;0.90;0.90;;;;;;;;;;5072720;28;20284;-84
2023/09/09 09:53:25;;;;;;;0.83;0.83;;;;;;;;;;5073344;28;20204;-83
2023/09/09 09:55:53;;;;;;;2.93;2.20;;;;;;;;;;5073438;28;20197;-83
2023/09/09 09:58:23;;;;;;;1.57;1.47;;;;;;;;;;5073319;28;20211;-84
2023/09/09 10:00:51;;;;;;;0.60;0.60;;;;;;;;;;5072552;28;20224;-83
2023/09/09 10:03:23;;;;;;;2.87;1.53;;;;;;;;;;5073859;28;20292;-84
2023/09/09 10:05:54;;;;;;;2.60;2.17;;;;;;;;;;5072975;28;20205;-83
2023/09/09 10:08:30;;;;;;;1.70;1.60;;;;;;;;;;5073103;28;20204;-83
2023/09/09 10:11:03;;;;;;;4.60;3.87;;;;;;;;;;5072878;28;20213;-83
2023/09/09 10:13:35;;;;;;;2.50;1.77;;;;;;;;;;5073550;28;20240;-84
2023/09/09 10:16:04;;;;;;;0.50;0.50;;;;;;;;;;5072697;28;20276;-84
2023/09/09 10:18:33;;;;;;;1.30;1.30;;;;;;;;;;5072343;28;20328;-84
2023/09/09 10:21:02;;;;;;;2.83;1.73;;;;;;;;;;5072386;28;20223;-83
2023/09/09 10:23:32;;;;;;;0.93;0.93;;;;;;;;;;5072998;28;20201;-83
2023/09/09 10:26:01;;;;;;;3.17;2.87;;;;;;;;;;5072319;28;20197;-84
2023/09/09 10:28:30;;;;;;;2.80;2.60;;;;;;;;;;5072469;28;20201;-84
2023/09/09 10:31:01;;;;;;;3.27;3.07;;;;;;;;;;5072740;28;20207;-84
2023/09/09 10:33:30;;;;;;;2.23;1.63;;;;;;;;;;5072472;28;20279;-85
2023/09/09 10:35:59;;;;;;;3.00;2.70;;;;;;;;;;5072009;28;20209;-85
2023/09/09 10:38:28;;;;;;;9.37;3.50;;;;;;;;;;5072486;28;20205;-84
2023/09/09 10:40:58;;;;;;;0.50;0.50;;;;;;;;;;5072148;28;20225;-84
2023/09/09 10:43:26;;;;;;;3.03;2.30;;;;;;;;;;5072651;28;20205;-84
2023/09/09 10:45:55;;;;;;;0.97;0.93;;;;;;;;;;5072013;28;20213;-84
2023/09/09 10:48:24;;;;;;;0.80;0.80;;;;;;;;;;5072116;28;20216;-83
2023/09/09 10:50:53;;;;;;;2.60;2.40;;;;;;;;;;5072622;28;20201;-84
2023/09/09 10:53:23;;;;;;;4.90;2.67;;;;;;;;;;5072480;28;20202;-84
2023/09/09 10:55:54;;;;;;;8.93;1.43;;;;;;;;;;5071641;28;20255;-84
2023/09/09 10:58:34;;;;;;;2.13;1.93;;;;;;;;;;5072127;28;20235;-84
2023/09/09 11:01:02;;;;;;;1.80;1.60;;;;;;;;;;5071733;28;20212;-85
2023/09/09 11:03:37;;;;;;;36.07;2.13;;;;;;;;;;5071902;28;20212;-84
2023/09/09 11:06:06;;;;;;;3.17;1.80;;;;;;;;;;5072152;28;20199;-83
2023/09/09 11:08:36;;;;;;;2.17;1.13;;;;;;;;;;5072104;28;20262;-83
2023/09/09 11:11:12;;;;;;;1.50;1.40;;;;;;;;;;5071438;28;20204;-84
2023/09/09 11:13:58;;;;;;;0.30;0.30;;;;;;;;;;5071529;28;20200;-84
2023/09/09 11:16:30;;;;;;;3.33;3.10;;;;;;;;;;5059225;28;20206;-86
2023/09/09 11:19:02;;;;;;;1.73;1.20;;;;;;;;;;5072045;28;20208;-84
2023/09/09 11:21:33;;;;;;;0.80;0.80;;;;;;;;;;5071107;28;20221;-84
2023/09/09 11:24:02;;;;;;;8.80;2.13;;;;;;;;;;5071763;28;20194;-83
2023/09/09 11:26:31;;;;;;;3.90;3.17;;;;;;;;;;5071969;28;20212;-83
2023/09/09 11:29:01;;;;;;;1.20;1.10;;;;;;;;;;5071827;28;20204;-84
2023/09/09 11:31:34;;;;;;;0.53;0.53;;;;;;;;;;5071024;28;20251;-85
2023/09/09 11:34:03;;;;;;;1.13;1.03;;;;;;;;;;5071793;28;20217;-84
2023/09/09 11:36:32;;;;;;;1.60;1.50;;;;;;;;;;5071605;28;20244;-84
2023/09/09 11:39:01;;;;;;;0.70;0.70;;;;;;;;;;5071333;28;20206;-85
2023/09/09 11:41:30;;;;;;;5.93;3.50;;;;;;;;;;5070855;28;20205;-85
2023/09/09 11:43:59;;;;;;;1.77;0.53;;;;;;;;;;5071599;28;20216;-85
2023/09/09 11:46:28;;;;;;;1.30;1.20;;;;;;;;;;5071759;28;20255;-85
2023/09/09 11:48:58;;;;;;;2.23;2.07;;;;;;;;;;5070652;28;20197;-84
2023/09/09 11:51:27;;;;;;;0.40;0.40;;;;;;;;;;5071249;28;20200;-84
2023/09/09 11:53:55;;;;;;;5.40;2.23;;;;;;;;;;5071461;28;20202;-83
2023/09/09 11:56:24;;;;;;;2.00;1.40;;;;;;;;;;5071273;28;20201;-84
2023/09/09 11:58:52;;;;;;;1.57;1.43;;;;;;;;;;5072770;28;20201;-84
2023/09/09 12:01:21;;;;;;;4.30;3.87;;;;;;;;;;5075269;28;20224;-84
2023/09/09 12:03:50;;;;;;;1.90;1.80;;;;;;;;;;5075384;28;20288;-84
2023/09/09 12:06:22;;;;;;;4.83;2.13;;;;;;;;;;5075449;28;20310;-83
2023/09/09 12:08:51;;;;;;;3.70;2.20;;;;;;;;;;5075233;28;20229;-84
2023/09/09 12:11:20;;;;;;;1.30;1.23;;;;;;;;;;5075024;28;20201;-84
2023/09/09 12:13:49;;;;;;;0.50;0.50;;;;;;;;;;5075464;28;20235;-84
2023/09/09 12:16:17;;;;;;;1.23;1.13;;;;;;;;;;5074656;28;20190;-83
2023/09/09 12:18:52;;;;;;;2.57;2.37;;;;;;;;;;5074681;28;20236;-83
2023/09/09 12:21:23;;;;;;;0.80;0.80;;;;;;;;;;5074992;28;20287;-84
2023/09/09 12:23:56;;;;;;;1.53;1.43;;;;;;;;;;5074926;28;20200;-84
2023/09/09 12:26:25;;;;;;;1.40;1.30;;;;;;;;;;5075123;28;20213;-83
2023/09/09 12:29:06;;;;;;;0.27;0.27;;;;;;;;;;5074793;28;20251;-84
2023/09/09 12:31:35;;;;;;;2.07;1.80;;;;;;;;;;5074714;28;20202;-84
2023/09/09 12:34:04;;;;;;;1.60;1.50;;;;;;;;;;5074503;28;20202;-84
2023/09/09 12:36:36;;;;;;;2.30;1.43;;;;;;;;;;5074564;28;20221;-84
2023/09/09 12:39:08;;;;;;;2.13;1.97;;;;;;;;;;5074663;28;20193;-84
2023/09/09 12:41:36;;;;;;;2.50;2.30;;;;;;;;;;5074327;28;20225;-84
2023/09/09 12:44:09;;;;;;;3.50;1.67;;;;;;;;;;5074060;28;20198;-84
2023/09/09 12:46:38;;;;;;;2.97;2.30;;;;;;;;;;5075102;28;20206;-83
2023/09/09 12:49:06;;;;;;;1.30;1.30;;;;;;;;;;5074993;28;20547;-83
2023/09/09 12:51:36;;;;;;;0.70;0.70;;;;;;;;;;5073992;28;20200;-84
2023/09/09 12:54:05;;;;;;;1.60;1.50;;;;;;;;;;5073992;28;20208;-84
2023/09/09 12:56:33;;;;;;;7.60;2.03;;;;;;;;;;5074495;28;20208;-83
2023/09/09 12:59:02;;;;;;;4.20;3.60;;;;;;;;;;5074253;28;20201;-84
2023/09/09 13:01:30;;;;;;;2.87;2.67;;;;;;;;;;5074150;28;20275;-84
2023/09/09 13:03:59;;;;;;;2.03;1.80;;;;;;;;;;5073820;28;20236;-84
2023/09/09 13:06:28;;;;;;;1.73;1.60;;;;;;;;;;5074384;28;20198;-84
2023/09/09 13:08:58;;;;;;;3.23;1.97;;;;;;;;;;5074146;28;20205;-84
2023/09/09 13:11:26;;;;;;;0.97;0.97;;;;;;;;;;5073068;28;20236;-84
2023/09/09 13:13:55;;;;;;;6.57;3.27;;;;;;;;;;5074686;28;20251;-84
2023/09/09 13:16:45;;;;;;;1.90;1.80;;;;;;;;;;5074000;28;20324;-84
2023/09/09 13:19:16;;;;;;;0.97;0.97;;;;;;;;;;5073832;28;20300;-83
2023/09/09 13:21:44;;;;;;;2.47;2.37;;;;;;;;;;5073692;28;20217;-83
2023/09/09 13:24:14;;;;;;;1.77;1.67;;;;;;;;;;5074163;28;20212;-83
2023/09/09 13:26:43;;;;;;;1.57;1.47;;;;;;;;;;5073883;28;20204;-83
2023/09/09 13:29:11;;;;;;;1.97;1.87;;;;;;;;;;5073801;28;20225;-83
2023/09/09 13:31:40;;;;;;;1.33;1.23;;;;;;;;;;5073908;28;20197;-83
2023/09/09 13:34:08;;;;;;;0.43;0.43;;;;;;;;;;5073926;28;20321;-84
2023/09/09 13:36:37;;;;;;;0.83;0.83;;;;;;;;;;5073590;28;20268;-83
2023/09/09 13:39:05;;;;;;;6.27;2.87;;;;;;;;;;5073037;28;20193;-83
2023/09/09 13:41:35;;;;;;;0.93;0.93;;;;;;;;;;5073071;28;20239;-83
2023/09/09 13:44:04;;;;;;;1.67;1.57;;;;;;;;;;5073967;28;20231;-83
2023/09/09 13:46:32;;;;;;;4.57;1.50;;;;;;;;;;5073272;28;20202;-83
2023/09/09 13:49:00;;;;;;;1.47;1.37;;;;;;;;;;5073445;28;20225;-83
2023/09/09 13:51:29;;;;;;;1.87;1.77;;;;;;;;;;5073253;28;20245;-83
2023/09/09 13:53:58;;;;;;;0.50;0.50;;;;;;;;;;5073336;28;20217;-83
2023/09/09 13:56:27;;;;;;;1.30;1.30;;;;;;;;;;5072588;28;20296;-83
2023/09/09 13:58:57;;;;;;;1.37;1.27;;;;;;;;;;5073453;28;20216;-83
2023/09/09 14:01:26;;;;;;;0.20;0.20;;;;;;;;;;5072966;28;20220;-83
2023/09/09 14:03:54;;;;;;;0.20;0.20;;;;;;;;;;5072749;28;20224;-83
2023/09/09 14:06:23;;;;;;;0.30;0.30;;;;;;;;;;5072436;28;20194;-83
2023/09/09 14:08:51;;;;;;;1.07;1.07;;;;;;;;;;5072817;28;20194;-84
2023/09/09 14:11:20;;;;;;;0.20;0.20;;;;;;;;;;5072720;28;20205;-83
2023/09/09 14:13:48;;;;;;;0.57;0.57;;;;;;;;;;5072351;28;20267;-83
2023/09/09 14:16:18;;;;;;;16.60;2.53;;;;;;;;;;5073108;28;20202;-83
2023/09/09 14:18:47;;;;;;;3.30;3.00;;;;;;;;;;5072265;28;20233;-83
2023/09/09 14:21:17;;;;;;;0.50;0.50;;;;;;;;;;5072554;28;20432;-83
2023/09/09 14:23:45;;;;;;;0.60;0.60;;;;;;;;;;5072192;28;20221;-83
2023/09/09 14:26:16;;;;;;;0.20;0.20;;;;;;;;;;5072699;28;20198;-83
2023/09/09 14:28:45;;;;;;;4.53;2.53;;;;;;;;;;5072833;28;20198;-83
2023/09/09 14:31:13;;;;;;;0.77;0.77;;;;;;;;;;5071855;28;20190;-84
2023/09/09 14:33:44;;;;;;;2.37;0.67;;;;;;;;;;5072499;28;20190;-83
2023/09/09 14:36:12;;;;;;;0.30;0.30;;;;;;;;;;5072436;28;20229;-84
2023/09/09 14:38:40;;;;;;;0.40;0.40;;;;;;;;;;5072565;28;20242;-84
2023/09/09 14:41:09;;;;;;;1.73;1.20;;;;;;;;;;5071883;28;20247;-84
2023/09/09 14:43:37;;;;;;;0.80;0.80;;;;;;;;;;5072027;28;20217;-83
2023/09/09 14:46:06;;;;;;;0.50;0.50;;;;;;;;;;5072521;28;20201;-84
2023/09/09 14:48:38;;;;;;;1.47;1.07;;;;;;;;;;5072063;28;20228;-83
2023/09/09 14:51:08;;;;;;;1.63;1.57;;;;;;;;;;5071820;28;20198;-83
2023/09/09 14:53:37;;;;;;;1.40;1.30;;;;;;;;;;5072083;28;20201;-83